sensor_id;sensor_type;location;lat;lon;timestamp;pressure;altitude;pressure_sealevel;temperature;humidity
55217;BME280;41086;46.736;15.666;2024-02-28T00:02:03;98356.41;;;10.12;100.00
55217;BME280;41086;46.736;15.666;2024-02-28T00:04:30;98361.84;;;10.10;100.00
55217;BME280;41086;46.736;15.666;2024-02-28T00:06:57;98354.72;;;9.98;100.00
55217;BME280;41086;46.736;15.666;2024-02-28T00:09:24;98361.28;;;9.92;100.00
55217;BME280;41086;46.736;15.666;2024-02-28T00:11:51;98351.53;;;9.93;100.00
55217;BME280;41086;46.736;15.666;2024-02-28T00:14:17;98359.91;;;9.99;100.00
55217;BME280;41086;46.736;15.666;2024-02-28T00:16:46;98353.66;;;10.01;100.00
55217;BME280;41086;46.736;15.666;2024-02-28T00:19:13;98343.69;;;9.79;100.00
55217;BME280;41086;46.736;15.666;2024-02-28T00:21:40;98363.06;;;9.92;100.00
55217;BME280;41086;46.736;15.666;2024-02-28T00:24:08;98363.09;;;10.17;100.00
55217;BME280;41086;46.736;15.666;2024-02-28T00:26:36;98356.56;;;10.36;100.00
55217;BME280;41086;46.736;15.666;2024-02-28T00:29:03;98357.94;;;10.41;100.00
55217;BME280;41086;46.736;15.666;2024-02-28T00:31:30;98368.06;;;10.09;100.00
55217;BME280;41086;46.736;15.666;2024-02-28T00:33:56;98365.09;;;10.01;100.00
55217;BME280;41086;46.736;15.666;2024-02-28T00:36:23;98370.09;;;10.06;100.00
55217;BME280;41086;46.736;15.666;2024-02-28T00:38:50;98355.69;;;10.10;100.00
55217;BME280;41086;46.736;15.666;2024-02-28T00:41:17;98367.75;;;10.27;100.00
55217;BME280;41086;46.736;15.666;2024-02-28T00:43:44;98374.16;;;10.37;100.00
55217;BME280;41086;46.736;15.666;2024-02-28T00:46:11;98366.63;;;10.31;100.00
55217;BME280;41086;46.736;15.666;2024-02-28T00:48:39;98372.50;;;10.09;100.00
55217;BME280;41086;46.736;15.666;2024-02-28T00:51:07;98370.81;;;9.95;100.00
55217;BME280;41086;46.736;15.666;2024-02-28T00:53:37;98377.91;;;9.94;100.00
55217;BME280;41086;46.736;15.666;2024-02-28T00:56:03;98377.34;;;9.76;100.00
55217;BME280;41086;46.736;15.666;2024-02-28T00:58:30;98366.78;;;9.89;100.00
55217;BME280;41086;46.736;15.666;2024-02-28T01:00:57;98378.03;;;10.06;100.00
55217;BME280;41086;46.736;15.666;2024-02-28T01:03:24;98378.03;;;10.18;100.00
55217;BME280;41086;46.736;15.666;2024-02-28T01:05:51;98366.69;;;10.16;100.00
55217;BME280;41086;46.736;15.666;2024-02-28T01:08:18;98391.06;;;10.21;100.00
55217;BME280;41086;46.736;15.666;2024-02-28T01:10:46;98366.84;;;10.28;100.00
55217;BME280;41086;46.736;15.666;2024-02-28T01:13:13;98372.22;;;10.52;100.00
55217;BME280;41086;46.736;15.666;2024-02-28T01:15:40;98390.25;;;10.72;100.00
55217;BME280;41086;46.736;15.666;2024-02-28T01:18:11;98389.47;;;10.83;100.00
55217;BME280;41086;46.736;15.666;2024-02-28T01:20:38;98365.00;;;10.67;100.00
55217;BME280;41086;46.736;15.666;2024-02-28T01:23:04;98382.38;;;10.83;100.00
55217;BME280;41086;46.736;15.666;2024-02-28T01:25:31;98361.28;;;10.69;100.00
55217;BME280;41086;46.736;15.666;2024-02-28T01:27:58;98375.13;;;10.85;100.00
55217;BME280;41086;46.736;15.666;2024-02-28T01:30:25;98366.25;;;10.74;100.00
55217;BME280;41086;46.736;15.666;2024-02-28T01:32:52;98389.97;;;10.88;100.00
55217;BME280;41086;46.736;15.666;2024-02-28T01:35:19;98385.25;;;10.80;100.00
55217;BME280;41086;46.736;15.666;2024-02-28T01:37:46;98387.53;;;10.85;100.00
55217;BME280;41086;46.736;15.666;2024-02-28T01:40:13;98369.53;;;10.77;100.00
55217;BME280;41086;46.736;15.666;2024-02-28T01:42:40;98368.00;;;10.49;100.00
55217;BME280;41086;46.736;15.666;2024-02-28T01:45:09;98377.00;;;10.59;100.00
55217;BME280;41086;46.736;15.666;2024-02-28T01:47:41;98386.41;;;10.76;100.00
55217;BME280;41086;46.736;15.666;2024-02-28T01:50:09;98396.03;;;10.77;100.00
55217;BME280;41086;46.736;15.666;2024-02-28T01:52:38;98395.22;;;10.38;100.00
55217;BME280;41086;46.736;15.666;2024-02-28T01:55:06;98383.56;;;10.15;100.00
55217;BME280;41086;46.736;15.666;2024-02-28T01:57:33;98387.66;;;10.07;100.00
55217;BME280;41086;46.736;15.666;2024-02-28T02:00:01;98404.28;;;10.09;100.00
55217;BME280;41086;46.736;15.666;2024-02-28T02:02:30;98396.19;;;10.37;100.00
55217;BME280;41086;46.736;15.666;2024-02-28T02:04:56;98386.75;;;10.59;100.00
55217;BME280;41086;46.736;15.666;2024-02-28T02:07:24;98386.50;;;10.75;100.00
55217;BME280;41086;46.736;15.666;2024-02-28T02:09:52;98397.00;;;10.89;100.00
55217;BME280;41086;46.736;15.666;2024-02-28T02:12:20;98400.25;;;11.05;100.00
55217;BME280;41086;46.736;15.666;2024-02-28T02:14:51;98398.81;;;11.13;100.00
55217;BME280;41086;46.736;15.666;2024-02-28T02:17:18;98386.00;;;11.06;100.00
55217;BME280;41086;46.736;15.666;2024-02-28T02:19:45;98382.91;;;10.89;100.00
55217;BME280;41086;46.736;15.666;2024-02-28T02:22:13;98379.63;;;10.72;100.00
55217;BME280;41086;46.736;15.666;2024-02-28T02:24:41;98401.16;;;10.80;100.00
55217;BME280;41086;46.736;15.666;2024-02-28T02:27:08;98400.94;;;10.71;100.00
55217;BME280;41086;46.736;15.666;2024-02-28T02:29:35;98403.34;;;10.23;100.00
55217;BME280;41086;46.736;15.666;2024-02-28T02:32:02;98410.44;;;9.96;100.00
55217;BME280;41086;46.736;15.666;2024-02-28T02:34:29;98392.91;;;9.81;100.00
55217;BME280;41086;46.736;15.666;2024-02-28T02:36:56;98384.22;;;9.79;100.00
55217;BME280;41086;46.736;15.666;2024-02-28T02:39:22;98393.38;;;10.01;100.00
55217;BME280;41086;46.736;15.666;2024-02-28T02:41:49;98398.13;;;9.95;100.00
55217;BME280;41086;46.736;15.666;2024-02-28T02:44:17;98391.03;;;9.83;100.00
55217;BME280;41086;46.736;15.666;2024-02-28T02:46:44;98408.38;;;9.87;100.00
55217;BME280;41086;46.736;15.666;2024-02-28T02:49:11;98404.47;;;9.80;100.00
55217;BME280;41086;46.736;15.666;2024-02-28T02:51:37;98409.41;;;9.72;100.00
55217;BME280;41086;46.736;15.666;2024-02-28T02:54:04;98391.81;;;9.58;100.00
55217;BME280;41086;46.736;15.666;2024-02-28T02:56:32;98400.59;;;9.71;100.00
55217;BME280;41086;46.736;15.666;2024-02-28T02:58:59;98367.66;;;9.50;100.00
55217;BME280;41086;46.736;15.666;2024-02-28T03:01:26;98394.25;;;9.61;100.00
55217;BME280;41086;46.736;15.666;2024-02-28T03:03:53;98341.44;;;9.32;100.00
55217;BME280;41086;46.736;15.666;2024-02-28T03:06:19;98384.88;;;9.83;100.00
55217;BME280;41086;46.736;15.666;2024-02-28T03:08:47;98397.19;;;10.09;100.00
55217;BME280;41086;46.736;15.666;2024-02-28T03:11:14;98384.22;;;10.32;100.00
55217;BME280;41086;46.736;15.666;2024-02-28T03:13:41;98397.34;;;10.59;100.00
55217;BME280;41086;46.736;15.666;2024-02-28T03:16:08;98397.97;;;10.62;100.00
55217;BME280;41086;46.736;15.666;2024-02-28T03:18:35;98398.72;;;10.52;100.00
55217;BME280;41086;46.736;15.666;2024-02-28T03:21:03;98394.44;;;10.11;100.00
55217;BME280;41086;46.736;15.666;2024-02-28T03:23:31;98404.41;;;9.67;100.00
55217;BME280;41086;46.736;15.666;2024-02-28T03:26:02;98401.31;;;9.61;100.00
55217;BME280;41086;46.736;15.666;2024-02-28T03:28:29;98407.56;;;9.60;100.00
55217;BME280;41086;46.736;15.666;2024-02-28T03:30:56;98411.88;;;9.88;100.00
55217;BME280;41086;46.736;15.666;2024-02-28T03:33:23;98407.16;;;10.06;100.00
55217;BME280;41086;46.736;15.666;2024-02-28T03:35:51;98411.41;;;10.21;100.00
55217;BME280;41086;46.736;15.666;2024-02-28T03:38:18;98388.31;;;10.10;100.00
55217;BME280;41086;46.736;15.666;2024-02-28T03:40:45;98418.66;;;10.32;100.00
55217;BME280;41086;46.736;15.666;2024-02-28T03:43:11;98402.50;;;10.22;100.00
55217;BME280;41086;46.736;15.666;2024-02-28T03:45:39;98408.09;;;10.17;100.00
55217;BME280;41086;46.736;15.666;2024-02-28T03:48:06;98354.78;;;9.71;100.00
55217;BME280;41086;46.736;15.666;2024-02-28T03:50:33;98381.53;;;9.93;100.00
55217;BME280;41086;46.736;15.666;2024-02-28T03:53:00;98419.53;;;10.05;100.00
55217;BME280;41086;46.736;15.666;2024-02-28T03:55:27;98414.84;;;9.83;100.00
55217;BME280;41086;46.736;15.666;2024-02-28T03:57:54;98396.03;;;9.61;100.00
55217;BME280;41086;46.736;15.666;2024-02-28T04:00:21;98415.28;;;9.08;100.00
55217;BME280;41086;46.736;15.666;2024-02-28T04:02:48;98426.16;;;8.90;100.00
55217;BME280;41086;46.736;15.666;2024-02-28T04:05:15;98417.09;;;8.79;100.00
55217;BME280;41086;46.736;15.666;2024-02-28T04:07:43;98401.81;;;8.84;100.00
55217;BME280;41086;46.736;15.666;2024-02-28T04:10:10;98419.44;;;9.13;100.00
55217;BME280;41086;46.736;15.666;2024-02-28T04:12:37;98432.41;;;9.30;100.00
55217;BME280;41086;46.736;15.666;2024-02-28T04:15:04;98423.16;;;9.37;100.00
55217;BME280;41086;46.736;15.666;2024-02-28T04:17:31;98432.00;;;9.50;100.00
55217;BME280;41086;46.736;15.666;2024-02-28T04:19:58;98340.53;;;8.92;100.00
55217;BME280;41086;46.736;15.666;2024-02-28T04:22:25;98412.16;;;9.43;100.00
55217;BME280;41086;46.736;15.666;2024-02-28T04:24:52;98442.44;;;9.66;100.00
55217;BME280;41086;46.736;15.666;2024-02-28T04:27:19;98394.41;;;9.45;100.00
55217;BME280;41086;46.736;15.666;2024-02-28T04:29:45;98433.25;;;9.72;100.00
55217;BME280;41086;46.736;15.666;2024-02-28T04:32:12;98378.88;;;9.26;100.00
55217;BME280;41086;46.736;15.666;2024-02-28T04:34:39;98423.50;;;9.45;100.00
55217;BME280;41086;46.736;15.666;2024-02-28T04:37:06;98444.97;;;9.68;100.00
55217;BME280;41086;46.736;15.666;2024-02-28T04:39:32;98430.47;;;9.73;100.00
55217;BME280;41086;46.736;15.666;2024-02-28T04:41:59;98298.16;;;8.94;100.00
55217;BME280;41086;46.736;15.666;2024-02-28T04:44:26;98438.00;;;9.80;100.00
55217;BME280;41086;46.736;15.666;2024-02-28T04:46:53;98446.41;;;9.86;100.00
55217;BME280;41086;46.736;15.666;2024-02-28T04:49:20;98438.41;;;9.73;100.00
55217;BME280;41086;46.736;15.666;2024-02-28T04:51:47;98423.44;;;9.60;100.00
55217;BME280;41086;46.736;15.666;2024-02-28T04:54:14;98429.94;;;9.00;100.00
55217;BME280;41086;46.736;15.666;2024-02-28T04:56:41;98387.13;;;8.52;100.00
55217;BME280;41086;46.736;15.666;2024-02-28T04:59:11;98423.50;;;8.90;100.00
55217;BME280;41086;46.736;15.666;2024-02-28T05:01:39;98427.13;;;8.60;100.00
55217;BME280;41086;46.736;15.666;2024-02-28T05:04:06;98449.78;;;8.50;100.00
55217;BME280;41086;46.736;15.666;2024-02-28T05:06:33;98443.56;;;8.20;100.00
55217;BME280;41086;46.736;15.666;2024-02-28T05:09:04;98449.03;;;8.32;100.00
55217;BME280;41086;46.736;15.666;2024-02-28T05:11:31;98408.41;;;8.34;100.00
55217;BME280;41086;46.736;15.666;2024-02-28T05:14:01;98439.38;;;8.75;100.00
55217;BME280;41086;46.736;15.666;2024-02-28T05:16:30;98439.97;;;8.80;100.00
55217;BME280;41086;46.736;15.666;2024-02-28T05:18:57;98435.13;;;8.87;100.00
55217;BME280;41086;46.736;15.666;2024-02-28T05:21:24;98448.53;;;8.70;100.00
55217;BME280;41086;46.736;15.666;2024-02-28T05:23:51;98454.97;;;8.35;100.00
55217;BME280;41086;46.736;15.666;2024-02-28T05:26:18;98457.44;;;8.38;100.00
55217;BME280;41086;46.736;15.666;2024-02-28T05:28:48;98452.50;;;8.62;100.00
55217;BME280;41086;46.736;15.666;2024-02-28T05:31:25;98456.84;;;8.78;100.00
55217;BME280;41086;46.736;15.666;2024-02-28T05:33:54;98405.78;;;8.49;100.00
55217;BME280;41086;46.736;15.666;2024-02-28T05:36:25;98459.78;;;8.87;100.00
55217;BME280;41086;46.736;15.666;2024-02-28T05:38:54;98454.09;;;8.94;100.00
55217;BME280;41086;46.736;15.666;2024-02-28T05:41:21;98455.81;;;8.80;100.00
55217;BME280;41086;46.736;15.666;2024-02-28T05:43:49;98456.81;;;8.49;100.00
55217;BME280;41086;46.736;15.666;2024-02-28T05:46:16;98448.00;;;8.34;100.00
55217;BME280;41086;46.736;15.666;2024-02-28T05:48:43;98454.56;;;8.43;100.00
55217;BME280;41086;46.736;15.666;2024-02-28T05:51:11;98469.03;;;8.36;100.00
55217;BME280;41086;46.736;15.666;2024-02-28T05:53:40;98467.88;;;8.56;100.00
55217;BME280;41086;46.736;15.666;2024-02-28T05:56:10;98472.19;;;8.42;100.00
55217;BME280;41086;46.736;15.666;2024-02-28T05:58:41;98461.44;;;8.01;100.00
55217;BME280;41086;46.736;15.666;2024-02-28T06:01:09;98465.34;;;7.48;100.00
55217;BME280;41086;46.736;15.666;2024-02-28T06:03:39;98467.00;;;7.65;100.00
55217;BME280;41086;46.736;15.666;2024-02-28T06:06:06;98487.19;;;7.66;100.00
55217;BME280;41086;46.736;15.666;2024-02-28T06:08:34;98494.75;;;7.88;100.00
55217;BME280;41086;46.736;15.666;2024-02-28T06:11:01;98484.81;;;7.77;100.00
55217;BME280;41086;46.736;15.666;2024-02-28T06:13:28;98489.06;;;7.80;100.00
55217;BME280;41086;46.736;15.666;2024-02-28T06:15:58;98497.22;;;7.75;100.00
55217;BME280;41086;46.736;15.666;2024-02-28T06:18:26;98502.09;;;7.51;100.00
55217;BME280;41086;46.736;15.666;2024-02-28T06:20:56;98491.47;;;7.37;100.00
55217;BME280;41086;46.736;15.666;2024-02-28T06:23:23;98512.69;;;7.02;100.00
55217;BME280;41086;46.736;15.666;2024-02-28T06:25:57;98519.13;;;6.96;100.00
55217;BME280;41086;46.736;15.666;2024-02-28T06:28:24;98434.13;;;6.43;100.00
55217;BME280;41086;46.736;15.666;2024-02-28T06:30:51;98515.00;;;7.24;100.00
55217;BME280;41086;46.736;15.666;2024-02-28T06:33:18;98531.03;;;7.52;100.00
55217;BME280;41086;46.736;15.666;2024-02-28T06:35:46;98530.75;;;7.73;100.00
55217;BME280;41086;46.736;15.666;2024-02-28T06:38:12;98525.34;;;8.06;100.00
55217;BME280;41086;46.736;15.666;2024-02-28T06:40:40;98526.16;;;8.23;100.00
55217;BME280;41086;46.736;15.666;2024-02-28T06:43:08;98528.53;;;7.81;100.00
55217;BME280;41086;46.736;15.666;2024-02-28T06:45:34;98526.75;;;7.50;100.00
55217;BME280;41086;46.736;15.666;2024-02-28T06:48:04;98533.13;;;7.46;100.00
55217;BME280;41086;46.736;15.666;2024-02-28T06:50:32;98530.25;;;7.82;100.00
55217;BME280;41086;46.736;15.666;2024-02-28T06:52:59;98545.34;;;8.10;100.00
55217;BME280;41086;46.736;15.666;2024-02-28T06:55:25;98533.84;;;8.11;100.00
55217;BME280;41086;46.736;15.666;2024-02-28T06:57:52;98541.34;;;8.49;100.00
55217;BME280;41086;46.736;15.666;2024-02-28T07:00:19;98525.81;;;8.73;100.00
55217;BME280;41086;46.736;15.666;2024-02-28T07:02:46;98511.19;;;8.68;100.00
55217;BME280;41086;46.736;15.666;2024-02-28T07:05:13;98540.44;;;8.34;100.00
55217;BME280;41086;46.736;15.666;2024-02-28T07:07:40;98546.00;;;8.14;100.00
55217;BME280;41086;46.736;15.666;2024-02-28T07:10:08;98542.63;;;8.12;100.00
55217;BME280;41086;46.736;15.666;2024-02-28T07:12:35;98542.56;;;7.82;100.00
55217;BME280;41086;46.736;15.666;2024-02-28T07:15:02;98538.75;;;7.87;100.00
55217;BME280;41086;46.736;15.666;2024-02-28T07:17:29;98542.84;;;8.39;100.00
55217;BME280;41086;46.736;15.666;2024-02-28T07:19:56;98540.63;;;8.61;100.00
55217;BME280;41086;46.736;15.666;2024-02-28T07:22:23;98559.31;;;8.73;100.00
55217;BME280;41086;46.736;15.666;2024-02-28T07:24:50;98559.97;;;8.76;100.00
55217;BME280;41086;46.736;15.666;2024-02-28T07:27:17;98568.88;;;8.75;100.00
55217;BME280;41086;46.736;15.666;2024-02-28T07:29:43;98560.22;;;9.16;100.00
55217;BME280;41086;46.736;15.666;2024-02-28T07:32:10;98570.31;;;9.38;100.00
55217;BME280;41086;46.736;15.666;2024-02-28T07:34:39;98575.03;;;9.62;100.00
55217;BME280;41086;46.736;15.666;2024-02-28T07:37:06;98570.13;;;9.56;100.00
55217;BME280;41086;46.736;15.666;2024-02-28T07:39:32;98574.00;;;9.36;100.00
55217;BME280;41086;46.736;15.666;2024-02-28T07:41:59;98573.91;;;9.08;100.00
55217;BME280;41086;46.736;15.666;2024-02-28T07:44:26;98579.94;;;8.96;100.00
55217;BME280;41086;46.736;15.666;2024-02-28T07:46:59;98577.75;;;8.88;100.00
55217;BME280;41086;46.736;15.666;2024-02-28T07:49:27;98581.81;;;8.94;100.00
55217;BME280;41086;46.736;15.666;2024-02-28T07:51:54;98579.19;;;9.37;100.00
55217;BME280;41086;46.736;15.666;2024-02-28T07:54:22;98584.97;;;9.58;100.00
55217;BME280;41086;46.736;15.666;2024-02-28T07:56:48;98581.28;;;9.88;100.00
55217;BME280;41086;46.736;15.666;2024-02-28T07:59:15;98577.31;;;9.95;100.00
55217;BME280;41086;46.736;15.666;2024-02-28T08:01:42;98575.50;;;9.95;100.00
55217;BME280;41086;46.736;15.666;2024-02-28T08:04:09;98587.44;;;10.30;100.00
55217;BME280;41086;46.736;15.666;2024-02-28T08:06:36;98577.88;;;10.27;100.00
55217;BME280;41086;46.736;15.666;2024-02-28T08:09:03;98591.03;;;10.29;100.00
55217;BME280;41086;46.736;15.666;2024-02-28T08:11:30;98587.09;;;10.74;100.00
55217;BME280;41086;46.736;15.666;2024-02-28T08:13:58;98574.75;;;11.00;100.00
55217;BME280;41086;46.736;15.666;2024-02-28T08:16:24;98580.88;;;10.88;100.00
55217;BME280;41086;46.736;15.666;2024-02-28T08:18:55;98589.59;;;10.37;100.00
55217;BME280;41086;46.736;15.666;2024-02-28T08:21:22;98569.50;;;9.79;100.00
55217;BME280;41086;46.736;15.666;2024-02-28T08:23:49;98593.59;;;9.89;100.00
55217;BME280;41086;46.736;15.666;2024-02-28T08:26:16;98593.84;;;9.43;100.00
55217;BME280;41086;46.736;15.666;2024-02-28T08:28:43;98583.81;;;9.48;100.00
55217;BME280;41086;46.736;15.666;2024-02-28T08:31:09;98597.59;;;9.67;100.00
55217;BME280;41086;46.736;15.666;2024-02-28T08:33:36;98595.69;;;9.84;100.00
55217;BME280;41086;46.736;15.666;2024-02-28T08:36:04;98597.06;;;9.89;100.00
55217;BME280;41086;46.736;15.666;2024-02-28T08:38:30;98594.16;;;9.94;100.00
55217;BME280;41086;46.736;15.666;2024-02-28T08:40:57;98582.75;;;10.06;100.00
55217;BME280;41086;46.736;15.666;2024-02-28T08:43:24;98583.88;;;10.43;100.00
55217;BME280;41086;46.736;15.666;2024-02-28T08:45:51;98595.75;;;11.03;100.00
55217;BME280;41086;46.736;15.666;2024-02-28T08:48:18;98604.03;;;11.12;100.00
55217;BME280;41086;46.736;15.666;2024-02-28T08:50:45;98597.19;;;10.82;100.00
55217;BME280;41086;46.736;15.666;2024-02-28T08:53:12;98608.97;;;10.78;100.00
55217;BME280;41086;46.736;15.666;2024-02-28T08:55:39;98613.16;;;11.07;100.00
55217;BME280;41086;46.736;15.666;2024-02-28T08:58:05;98608.69;;;11.34;100.00
55217;BME280;41086;46.736;15.666;2024-02-28T09:00:32;98619.69;;;11.53;100.00
55217;BME280;41086;46.736;15.666;2024-02-28T09:02:59;98611.09;;;11.62;100.00
55217;BME280;41086;46.736;15.666;2024-02-28T09:05:26;98609.59;;;11.84;100.00
55217;BME280;41086;46.736;15.666;2024-02-28T09:07:53;98608.81;;;11.32;100.00
55217;BME280;41086;46.736;15.666;2024-02-28T09:10:21;98529.13;;;10.82;100.00
55217;BME280;41086;46.736;15.666;2024-02-28T09:12:51;98621.84;;;11.09;100.00
55217;BME280;41086;46.736;15.666;2024-02-28T09:15:18;98620.03;;;11.10;100.00
55217;BME280;41086;46.736;15.666;2024-02-28T09:17:45;98624.81;;;11.30;100.00
55217;BME280;41086;46.736;15.666;2024-02-28T09:20:12;98618.03;;;11.39;100.00
55217;BME280;41086;46.736;15.666;2024-02-28T09:22:39;98618.19;;;11.74;100.00
55217;BME280;41086;46.736;15.666;2024-02-28T09:25:06;98630.09;;;12.18;100.00
55217;BME280;41086;46.736;15.666;2024-02-28T09:27:36;98618.63;;;12.18;100.00
55217;BME280;41086;46.736;15.666;2024-02-28T09:30:03;98628.38;;;12.30;100.00
55217;BME280;41086;46.736;15.666;2024-02-28T09:32:30;98628.88;;;12.35;100.00
55217;BME280;41086;46.736;15.666;2024-02-28T09:34:57;98632.16;;;12.63;100.00
55217;BME280;41086;46.736;15.666;2024-02-28T09:37:24;98594.06;;;12.51;100.00
55217;BME280;41086;46.736;15.666;2024-02-28T09:39:51;98632.56;;;12.81;100.00
55217;BME280;41086;46.736;15.666;2024-02-28T09:42:19;98624.44;;;12.71;100.00
55217;BME280;41086;46.736;15.666;2024-02-28T09:44:47;98639.66;;;13.04;100.00
55217;BME280;41086;46.736;15.666;2024-02-28T09:47:15;98642.75;;;13.22;100.00
55217;BME280;41086;46.736;15.666;2024-02-28T09:49:42;98638.34;;;13.10;100.00
55217;BME280;41086;46.736;15.666;2024-02-28T09:52:09;98636.94;;;12.82;100.00
55217;BME280;41086;46.736;15.666;2024-02-28T09:54:37;98641.84;;;13.68;99.79
55217;BME280;41086;46.736;15.666;2024-02-28T09:57:04;98641.25;;;13.87;94.50
55217;BME280;41086;46.736;15.666;2024-02-28T09:59:33;98614.84;;;13.39;97.00
55217;BME280;41086;46.736;15.666;2024-02-28T10:02:18;98641.47;;;13.73;95.66
55217;BME280;41086;46.736;15.666;2024-02-28T10:04:48;98651.53;;;13.58;98.28
55217;BME280;41086;46.736;15.666;2024-02-28T10:07:15;98652.25;;;13.49;95.08
55217;BME280;41086;46.736;15.666;2024-02-28T10:09:43;98654.69;;;13.74;97.58
55217;BME280;41086;46.736;15.666;2024-02-28T10:12:10;98642.19;;;14.09;93.87
55217;BME280;41086;46.736;15.666;2024-02-28T10:14:37;98656.19;;;14.45;90.91
55217;BME280;41086;46.736;15.666;2024-02-28T10:17:05;98642.47;;;14.38;88.30
55217;BME280;41086;46.736;15.666;2024-02-28T10:19:32;98643.84;;;14.32;95.58
55217;BME280;41086;46.736;15.666;2024-02-28T10:21:59;98641.72;;;13.81;96.03
55217;BME280;41086;46.736;15.666;2024-02-28T10:24:26;98653.22;;;13.70;90.09
55217;BME280;41086;46.736;15.666;2024-02-28T10:26:53;98642.94;;;13.88;91.64
55217;BME280;41086;46.736;15.666;2024-02-28T10:29:24;98640.41;;;13.98;92.16
55217;BME280;41086;46.736;15.666;2024-02-28T10:31:52;98624.25;;;14.11;89.08
55217;BME280;41086;46.736;15.666;2024-02-28T10:34:19;98643.00;;;14.32;87.76
55217;BME280;41086;46.736;15.666;2024-02-28T10:36:46;98646.19;;;14.69;85.65
55217;BME280;41086;46.736;15.666;2024-02-28T10:39:14;98641.31;;;14.74;88.65
55217;BME280;41086;46.736;15.666;2024-02-28T10:41:43;98630.69;;;14.63;88.38
55217;BME280;41086;46.736;15.666;2024-02-28T10:44:12;98654.34;;;14.45;85.49
55217;BME280;41086;46.736;15.666;2024-02-28T10:46:39;98629.03;;;13.85;95.82
55217;BME280;41086;46.736;15.666;2024-02-28T10:49:08;98639.50;;;14.20;92.74
55217;BME280;41086;46.736;15.666;2024-02-28T10:51:36;98640.91;;;14.47;86.85
55217;BME280;41086;46.736;15.666;2024-02-28T10:54:10;98647.91;;;14.59;89.32
55217;BME280;41086;46.736;15.666;2024-02-28T10:56:39;98646.09;;;14.59;88.74
55217;BME280;41086;46.736;15.666;2024-02-28T10:59:11;98639.06;;;14.58;85.48
55217;BME280;41086;46.736;15.666;2024-02-28T11:01:41;98643.88;;;14.97;85.50
55217;BME280;41086;46.736;15.666;2024-02-28T11:04:13;98639.88;;;15.75;83.83
55217;BME280;41086;46.736;15.666;2024-02-28T11:06:49;98625.81;;;15.73;76.88
55217;BME280;41086;46.736;15.666;2024-02-28T11:09:22;98639.94;;;15.64;80.07
55217;BME280;41086;46.736;15.666;2024-02-28T11:11:56;98631.31;;;15.81;79.84
55217;BME280;41086;46.736;15.666;2024-02-28T11:14:23;98639.03;;;16.25;79.14
55217;BME280;41086;46.736;15.666;2024-02-28T11:17:04;98642.97;;;16.80;74.34
55217;BME280;41086;46.736;15.666;2024-02-28T11:19:32;98639.91;;;17.52;70.18
55217;BME280;41086;46.736;15.666;2024-02-28T11:22:02;98632.94;;;16.82;73.43
55217;BME280;41086;46.736;15.666;2024-02-28T11:24:33;98637.69;;;16.59;75.11
55217;BME280;41086;46.736;15.666;2024-02-28T11:27:01;98641.94;;;17.20;71.42
55217;BME280;41086;46.736;15.666;2024-02-28T11:29:33;98597.41;;;16.61;75.75
55217;BME280;41086;46.736;15.666;2024-02-28T11:32:00;98628.41;;;17.12;70.70
55217;BME280;41086;46.736;15.666;2024-02-28T11:34:27;98626.56;;;16.74;74.78
55217;BME280;41086;46.736;15.666;2024-02-28T11:36:53;98634.03;;;16.60;76.69
55217;BME280;41086;46.736;15.666;2024-02-28T11:39:23;98631.53;;;17.08;73.33
55217;BME280;41086;46.736;15.666;2024-02-28T11:41:52;98628.41;;;17.22;70.60
55217;BME280;41086;46.736;15.666;2024-02-28T11:44:19;98641.56;;;17.62;70.79
55217;BME280;41086;46.736;15.666;2024-02-28T11:46:48;98634.63;;;17.79;66.55
55217;BME280;41086;46.736;15.666;2024-02-28T11:49:15;98626.75;;;18.69;62.09
55217;BME280;41086;46.736;15.666;2024-02-28T11:51:43;98610.56;;;17.97;63.08
55217;BME280;41086;46.736;15.666;2024-02-28T11:54:10;98625.31;;;18.74;63.42
55217;BME280;41086;46.736;15.666;2024-02-28T11:56:40;98622.06;;;19.24;59.51
55217;BME280;41086;46.736;15.666;2024-02-28T11:59:08;98625.09;;;18.40;62.12
55217;BME280;41086;46.736;15.666;2024-02-28T12:01:40;98609.75;;;18.96;63.49
55217;BME280;41086;46.736;15.666;2024-02-28T12:04:08;98584.03;;;19.11;62.00
55217;BME280;41086;46.736;15.666;2024-02-28T12:06:36;98621.31;;;19.14;62.99
55217;BME280;41086;46.736;15.666;2024-02-28T12:09:06;98613.78;;;19.70;57.60
55217;BME280;41086;46.736;15.666;2024-02-28T12:11:36;98612.03;;;19.61;58.44
55217;BME280;41086;46.736;15.666;2024-02-28T12:14:07;98611.53;;;19.57;58.17
55217;BME280;41086;46.736;15.666;2024-02-28T12:16:37;98611.97;;;19.70;59.85
55217;BME280;41086;46.736;15.666;2024-02-28T12:19:07;98606.72;;;20.62;55.17
55217;BME280;41086;46.736;15.666;2024-02-28T12:21:34;98607.44;;;20.89;51.63
55217;BME280;41086;46.736;15.666;2024-02-28T12:24:01;98605.56;;;20.81;54.52
55217;BME280;41086;46.736;15.666;2024-02-28T12:26:28;98603.41;;;20.85;52.03
55217;BME280;41086;46.736;15.666;2024-02-28T12:28:55;98605.06;;;21.35;51.18
55217;BME280;41086;46.736;15.666;2024-02-28T12:31:21;98595.59;;;22.03;48.36
55217;BME280;41086;46.736;15.666;2024-02-28T12:33:48;98590.22;;;22.65;44.64
55217;BME280;41086;46.736;15.666;2024-02-28T12:36:15;98587.22;;;22.83;45.20
55217;BME280;41086;46.736;15.666;2024-02-28T12:38:42;98590.22;;;22.42;46.73
55217;BME280;41086;46.736;15.666;2024-02-28T12:41:09;98595.69;;;21.78;46.78
55217;BME280;41086;46.736;15.666;2024-02-28T12:43:36;98593.09;;;21.29;50.08
55217;BME280;41086;46.736;15.666;2024-02-28T12:46:03;98587.06;;;22.30;47.61
55217;BME280;41086;46.736;15.666;2024-02-28T12:48:30;98580.00;;;22.52;46.10
55217;BME280;41086;46.736;15.666;2024-02-28T12:50:58;98577.44;;;22.59;42.94